createdAt,value
2022-12-13T00:00:57.830Z,28.05
2022-12-13T00:03:24.967Z,26.45
2022-12-13T00:05:52.077Z,24.98
2022-12-13T00:08:19.307Z,25.88
2022-12-13T00:10:46.486Z,25.52
2022-12-13T00:13:13.696Z,25.88
2022-12-13T00:15:40.950Z,25.67
2022-12-13T00:18:08.054Z,25.15
2022-12-13T00:20:35.811Z,24.70
2022-12-13T00:23:02.995Z,24.85
2022-12-13T00:25:30.100Z,22.70
2022-12-13T00:27:57.224Z,22.67
2022-12-13T00:30:24.392Z,22.73
2022-12-13T00:32:51.514Z,23.15
2022-12-13T00:35:18.614Z,21.75
2022-12-13T00:37:45.777Z,22.60
2022-12-13T00:40:13.303Z,23.05
2022-12-13T00:42:40.440Z,22.17
2022-12-13T00:45:07.961Z,22.60
2022-12-13T00:47:35.088Z,23.35
2022-12-13T00:50:02.427Z,22.48
2022-12-13T00:52:29.719Z,21.65
2022-12-13T00:54:56.847Z,22.10
2022-12-13T00:57:23.952Z,21.75
2022-12-13T00:59:51.159Z,22.63
2022-12-13T01:02:18.259Z,22.02
2022-12-13T01:04:45.385Z,23.70
2022-12-13T01:07:12.569Z,23.13
2022-12-13T01:09:39.997Z,24.13
2022-12-13T01:12:07.362Z,22.27
2022-12-13T01:14:39.157Z,22.50
2022-12-13T01:17:07.179Z,23.58
2022-12-13T01:19:34.536Z,23.50
2022-12-13T01:22:03.364Z,23.25
2022-12-13T01:24:31.495Z,22.80
2022-12-13T01:26:59.037Z,22.95
2022-12-13T01:29:26.887Z,22.17
2022-12-13T01:31:54.635Z,24.98
2022-12-13T01:34:26.365Z,26.20
2022-12-13T01:36:57.986Z,25.45
2022-12-13T01:39:27.044Z,24.60
2022-12-13T01:42:00.166Z,23.60
2022-12-13T01:44:45.863Z,22.55
2022-12-13T01:47:13.398Z,22.35
2022-12-13T01:49:40.600Z,22.63
2022-12-13T01:52:09.365Z,22.48
2022-12-13T01:54:39.081Z,22.45
2022-12-13T01:57:14.218Z,22.33
2022-12-13T01:59:42.430Z,22.30
2022-12-13T02:02:10.273Z,22.02
2022-12-13T02:04:43.757Z,23.48
2022-12-13T02:07:12.706Z,21.90
2022-12-13T02:09:39.814Z,22.58
2022-12-13T02:12:07.330Z,22.92
2022-12-13T02:14:37.913Z,22.83
2022-12-13T02:17:04.989Z,23.85
2022-12-13T02:19:50.936Z,22.10
2022-12-13T02:22:33.746Z,23.17
2022-12-13T02:25:01.883Z,22.80
2022-12-13T02:27:30.803Z,23.40
2022-12-13T02:30:17.199Z,23.25
2022-12-13T02:32:44.343Z,23.17
2022-12-13T02:35:18.880Z,22.77
2022-12-13T02:38:05.021Z,24.10
2022-12-13T02:40:44.179Z,23.70
2022-12-13T02:43:18.111Z,25.10
2022-12-13T02:45:50.030Z,25.17
2022-12-13T02:48:29.187Z,23.13
2022-12-13T02:50:57.038Z,23.55
2022-12-13T02:53:25.067Z,24.02
2022-12-13T02:55:52.173Z,23.67
2022-12-13T02:58:31.260Z,24.17
2022-12-13T03:01:07.507Z,22.73
2022-12-13T03:04:13.132Z,23.23
2022-12-13T03:06:46.517Z,23.83
2022-12-13T03:09:25.901Z,23.23
2022-12-13T03:12:30.424Z,22.88
2022-12-13T03:14:57.586Z,22.08
2022-12-13T03:17:26.438Z,23.02
2022-12-13T03:19:53.787Z,21.52
2022-12-13T03:22:21.474Z,23.30
2022-12-13T03:24:49.608Z,23.92
2022-12-13T03:27:16.746Z,23.58
2022-12-13T03:29:43.978Z,23.40
2022-12-13T03:32:11.080Z,22.75
2022-12-13T03:34:43.697Z,22.50
2022-12-13T03:37:12.151Z,23.05
2022-12-13T03:39:39.265Z,23.38
2022-12-13T03:42:06.404Z,22.77
2022-12-13T03:44:33.563Z,23.23
2022-12-13T03:47:01.036Z,22.75
2022-12-13T03:49:35.108Z,22.33
2022-12-13T03:52:02.932Z,22.63
2022-12-13T03:54:30.047Z,23.23
2022-12-13T03:56:58.000Z,23.35
2022-12-13T03:59:25.183Z,22.10
2022-12-13T04:01:52.344Z,22.48
2022-12-13T04:04:19.705Z,22.13
2022-12-13T04:06:46.925Z,22.40
2022-12-13T04:09:14.107Z,22.92
2022-12-13T04:12:00.287Z,23.92
2022-12-13T04:14:27.398Z,23.45
2022-12-13T04:16:54.501Z,22.38
2022-12-13T04:19:23.205Z,24.48
2022-12-13T04:21:51.093Z,23.63
2022-12-13T04:24:18.276Z,22.40
2022-12-13T04:26:45.479Z,22.52
2022-12-13T04:29:12.881Z,22.60
2022-12-13T04:31:40.028Z,23.13
2022-12-13T04:34:07.334Z,23.33
2022-12-13T04:36:34.464Z,23.08
2022-12-13T04:39:02.700Z,22.77
2022-12-13T04:41:34.567Z,23.20
2022-12-13T04:44:02.332Z,22.92
2022-12-13T04:46:29.452Z,24.80
2022-12-13T04:48:56.637Z,23.33
2022-12-13T04:51:23.794Z,23.60
2022-12-13T04:53:51.231Z,22.70
2022-12-13T04:56:19.979Z,24.90
2022-12-13T04:58:47.094Z,24.35
2022-12-13T05:01:14.329Z,23.55
2022-12-13T05:03:41.529Z,24.38
2022-12-13T05:06:26.685Z,24.50
2022-12-13T05:08:54.879Z,24.88
2022-12-13T05:11:35.890Z,24.08
2022-12-13T05:14:03.464Z,24.98
2022-12-13T05:16:30.659Z,24.45
2022-12-13T05:18:57.935Z,25.60
2022-12-13T05:21:25.104Z,24.10
2022-12-13T05:23:52.210Z,23.65
2022-12-13T05:26:19.489Z,23.67
2022-12-13T05:28:46.705Z,26.25
2022-12-13T05:31:23.278Z,24.10
2022-12-13T05:33:51.121Z,24.80
2022-12-13T05:36:18.345Z,25.33
2022-12-13T05:38:45.704Z,26.10
2022-12-13T05:41:17.319Z,25.58
2022-12-13T05:43:44.443Z,28.25
2022-12-13T05:46:12.843Z,26.00
2022-12-13T05:48:40.270Z,27.42
2022-12-13T05:51:09.719Z,27.08
2022-12-13T05:53:39.627Z,25.50
2022-12-13T05:56:06.966Z,26.83
2022-12-13T05:58:36.179Z,26.45
2022-12-13T06:01:11.192Z,28.73
2022-12-13T06:03:38.604Z,29.48
2022-12-13T06:06:06.458Z,26.73
2022-12-13T06:08:33.823Z,29.13
2022-12-13T06:11:10.345Z,30.50
2022-12-13T06:13:42.614Z,27.23
2022-12-13T06:18:50.564Z,27.83
2022-12-13T06:21:18.528Z,27.77
2022-12-13T06:23:45.661Z,29.15
2022-12-13T06:26:13.492Z,29.05
2022-12-13T06:28:40.608Z,28.25
2022-12-13T06:31:07.894Z,27.15
2022-12-13T06:33:39.123Z,27.38
2022-12-13T06:36:06.601Z,28.63
2022-12-13T06:38:33.792Z,27.15
2022-12-13T06:41:08.068Z,29.02
2022-12-13T06:43:35.164Z,27.55
2022-12-13T06:46:06.158Z,29.35
2022-12-13T06:48:33.780Z,27.52
2022-12-13T06:51:04.653Z,30.65
2022-12-13T06:53:32.194Z,28.85
2022-12-13T06:56:03.800Z,29.10
2022-12-13T06:58:30.956Z,29.52
2022-12-13T07:01:02.208Z,30.63
2022-12-13T07:03:30.097Z,28.27
2022-12-13T07:05:58.503Z,26.88
2022-12-13T07:08:26.020Z,27.52
2022-12-13T07:10:55.224Z,27.75
2022-12-13T07:13:22.792Z,25.40
2022-12-13T07:15:50.393Z,27.10
2022-12-13T07:18:18.000Z,27.67
2022-12-13T07:20:45.589Z,27.50
2022-12-13T07:23:13.202Z,32.53
2022-12-13T07:25:40.834Z,30.98
2022-12-13T07:28:08.641Z,31.33
2022-12-13T07:30:41.006Z,29.83
2022-12-13T07:33:09.127Z,28.73
2022-12-13T07:35:37.701Z,28.80
2022-12-13T07:38:05.588Z,28.52
2022-12-13T07:40:34.892Z,28.75
2022-12-13T07:43:02.133Z,27.65
2022-12-13T07:45:29.250Z,28.52
2022-12-13T07:47:56.418Z,26.63
2022-12-13T07:50:25.375Z,27.25
2022-12-13T07:52:53.594Z,24.35
2022-12-13T07:55:23.019Z,26.45
2022-12-13T07:58:13.233Z,27.15
2022-12-13T08:00:46.169Z,26.05
2022-12-13T08:03:25.379Z,25.83
2022-12-13T08:06:05.981Z,26.30
2022-12-13T08:08:33.725Z,27.13
2022-12-13T08:11:02.035Z,27.77
2022-12-13T08:13:29.222Z,28.88
2022-12-13T08:16:02.446Z,31.40
2022-12-13T08:18:30.484Z,28.65
2022-12-13T08:21:18.535Z,29.52
2022-12-13T08:23:53.114Z,31.65
2022-12-13T08:26:20.221Z,28.85
2022-12-13T08:28:47.348Z,31.40
2022-12-13T08:31:14.919Z,32.58
2022-12-13T08:33:43.708Z,31.52
2022-12-13T08:36:16.375Z,33.85
2022-12-13T08:38:43.708Z,31.52
2022-12-13T08:41:11.386Z,33.35
2022-12-13T08:43:38.660Z,31.42
2022-12-13T08:46:06.490Z,34.72
2022-12-13T08:48:33.677Z,35.13
2022-12-13T08:51:01.861Z,36.70
2022-12-13T08:53:31.772Z,35.97
2022-12-13T08:56:10.905Z,32.20
2022-12-13T08:58:38.531Z,31.13
2022-12-13T09:01:07.005Z,30.85
2022-12-13T09:03:34.311Z,29.50
2022-12-13T09:06:11.546Z,31.52
2022-12-13T09:08:39.297Z,28.95
2022-12-13T09:11:11.409Z,28.42
2022-12-13T09:13:49.896Z,26.52
2022-12-13T09:16:23.685Z,26.10
2022-12-13T09:18:55.216Z,27.77
2022-12-13T09:21:31.655Z,26.45
2022-12-13T09:24:01.333Z,29.27
2022-12-13T09:26:29.331Z,30.52
2022-12-13T09:29:10.626Z,29.27
2022-12-13T09:31:40.490Z,33.20
2022-12-13T09:34:08.739Z,37.50
2022-12-13T09:36:35.897Z,33.97
2022-12-13T09:39:03.073Z,33.30
2022-12-13T09:41:44.770Z,32.80
2022-12-13T09:44:32.275Z,34.15
2022-12-13T09:47:03.173Z,34.22
2022-12-13T09:49:39.056Z,34.13
2022-12-13T09:52:10.546Z,34.28
2022-12-13T09:54:47.845Z,31.90
2022-12-13T09:57:31.161Z,28.73
2022-12-13T10:00:01.775Z,28.35
2022-12-13T10:02:30.523Z,27.17
2022-12-13T10:05:04.067Z,27.83
2022-12-13T10:07:40.637Z,28.65
2022-12-13T10:10:10.095Z,29.90
2022-12-13T10:12:38.057Z,29.67
2022-12-13T10:15:05.586Z,27.25
2022-12-13T10:17:38.365Z,23.27
2022-12-13T10:20:06.849Z,22.88
2022-12-13T10:22:33.952Z,22.02
2022-12-13T10:25:05.366Z,22.92
2022-12-13T10:27:37.469Z,21.33
2022-12-13T10:30:13.872Z,21.02
2022-12-13T10:32:46.989Z,20.40
2022-12-13T10:35:20.762Z,19.55
2022-12-13T10:37:48.038Z,19.73
2022-12-13T10:40:32.731Z,20.95
2022-12-13T10:43:15.377Z,19.58
2022-12-13T10:45:44.228Z,20.10
2022-12-13T10:48:22.174Z,20.20
2022-12-13T10:50:59.807Z,19.50
2022-12-13T10:53:30.181Z,21.02
2022-12-13T10:56:02.354Z,19.73
2022-12-13T10:58:40.575Z,19.20
2022-12-13T11:01:20.626Z,18.27
2022-12-13T11:04:06.584Z,18.27
2022-12-13T11:06:44.741Z,17.40
2022-12-13T11:09:25.400Z,17.02
2022-12-13T11:11:58.557Z,18.17
2022-12-13T11:14:31.897Z,17.08
2022-12-13T11:17:01.816Z,15.68
2022-12-13T11:20:01.624Z,15.82
2022-12-13T11:22:32.965Z,15.80
2022-12-13T11:27:27.153Z,14.70
2022-12-13T11:30:02.077Z,16.30
2022-12-13T11:32:32.229Z,16.17
2022-12-13T11:35:37.673Z,17.38
2022-12-13T11:38:27.954Z,17.15
2022-12-13T11:41:03.990Z,17.20
2022-12-13T11:43:31.213Z,19.48
2022-12-13T11:45:59.772Z,18.67
2022-12-13T11:48:36.992Z,19.73
2022-12-13T11:51:06.375Z,20.48
2022-12-13T11:53:49.041Z,18.90
2022-12-13T11:56:20.446Z,19.48
2022-12-13T12:01:38.504Z,17.83
2022-12-13T12:04:30.354Z,19.50
2022-12-13T12:06:57.510Z,19.98
2022-12-13T12:09:29.929Z,18.55
2022-12-13T12:12:13.760Z,18.42
2022-12-13T12:14:54.866Z,17.13
2022-12-13T12:17:24.848Z,17.90
2022-12-13T12:19:54.077Z,15.32
2022-12-13T12:22:30.477Z,17.63
2022-12-13T12:25:04.178Z,14.90
2022-12-13T12:27:49.799Z,16.20
2022-12-13T12:30:24.644Z,15.05
2022-12-13T12:32:54.099Z,16.30
2022-12-13T12:35:45.728Z,17.80
2022-12-13T12:38:32.532Z,17.30
2022-12-13T12:41:18.384Z,14.63
2022-12-13T12:43:46.221Z,18.30
2022-12-13T12:46:46.848Z,17.75
2022-12-13T12:49:51.778Z,17.73
2022-12-13T12:52:24.780Z,18.95
2022-12-13T12:55:03.601Z,19.55
2022-12-13T12:57:30.748Z,20.58
2022-12-13T13:00:18.182Z,19.90
2022-12-13T13:02:45.332Z,20.02
2022-12-13T13:05:22.107Z,19.38
2022-12-13T13:07:56.611Z,18.90
2022-12-13T13:10:26.727Z,17.55
2022-12-13T13:13:11.249Z,20.20
2022-12-13T13:15:41.674Z,17.95
2022-12-13T13:18:28.835Z,19.23
2022-12-13T13:21:14.898Z,18.13
2022-12-13T13:23:42.097Z,17.98
2022-12-13T13:26:27.143Z,17.90
2022-12-13T13:28:56.608Z,18.92
2022-12-13T13:31:23.774Z,17.83
2022-12-13T13:33:51.386Z,14.60
2022-12-13T13:36:37.060Z,18.08
2022-12-13T13:39:04.187Z,15.95
2022-12-13T13:42:00.657Z,18.63
2022-12-13T13:44:34.187Z,15.25
2022-12-13T13:47:11.017Z,15.88
2022-12-13T13:49:40.389Z,14.25
2022-12-13T13:52:26.220Z,16.67
2022-12-13T13:55:12.364Z,14.82
2022-12-13T13:58:13.504Z,16.92
2022-12-13T14:01:04.300Z,16.42
2022-12-13T14:03:38.203Z,17.55
2022-12-13T14:06:20.610Z,15.50
2022-12-13T14:09:06.265Z,17.30
2022-12-13T14:11:48.618Z,15.77
2022-12-13T14:14:21.741Z,17.55
2022-12-13T14:16:49.658Z,18.60
2022-12-13T14:19:46.251Z,17.45
2022-12-13T14:22:25.330Z,17.63
2022-12-13T14:25:01.469Z,17.40
2022-12-13T14:27:44.031Z,16.67
2022-12-13T14:30:28.483Z,16.83
2022-12-13T14:32:57.026Z,16.67
2022-12-13T14:35:26.878Z,16.90
2022-12-13T14:38:01.701Z,17.10
2022-12-13T14:40:36.966Z,15.98
2022-12-13T14:43:04.567Z,16.42
2022-12-13T14:45:38.545Z,18.40
2022-12-13T14:48:07.708Z,19.13
2022-12-13T14:50:36.152Z,19.58
2022-12-13T14:53:03.465Z,18.23
2022-12-13T14:55:32.867Z,20.90
2022-12-13T14:58:00.926Z,21.02
2022-12-13T15:00:35.830Z,20.58
2022-12-13T15:03:04.123Z,21.25
2022-12-13T15:05:37.723Z,22.38
2022-12-13T15:08:10.974Z,20.23
2022-12-13T15:10:38.994Z,20.80
2022-12-13T15:13:06.449Z,23.88
2022-12-13T15:15:35.424Z,20.45
2022-12-13T15:18:21.762Z,20.65
2022-12-13T15:20:50.203Z,20.85
2022-12-13T15:23:40.328Z,21.17
2022-12-13T15:26:28.232Z,20.13
2022-12-13T15:28:59.397Z,19.55
2022-12-13T15:31:26.629Z,20.77
2022-12-13T15:33:54.283Z,21.45
2022-12-13T15:36:29.187Z,22.27
2022-12-13T15:38:56.290Z,21.95
2022-12-13T15:41:25.379Z,21.88
2022-12-13T15:43:54.221Z,22.75
2022-12-13T15:46:25.615Z,23.75
2022-12-13T15:51:29.728Z,19.30
2022-12-13T15:54:02.541Z,20.00
2022-12-13T15:56:33.700Z,18.67
2022-12-13T15:59:01.377Z,19.08
2022-12-13T16:01:35.892Z,19.25
2022-12-13T16:04:04.129Z,19.33
2022-12-13T16:06:36.513Z,19.60
2022-12-13T16:09:05.201Z,21.23
2022-12-13T16:11:36.761Z,20.63
2022-12-13T16:14:26.384Z,20.10
2022-12-13T16:16:54.580Z,17.23
2022-12-13T16:19:22.056Z,20.63
2022-12-13T16:21:49.688Z,19.80
2022-12-13T16:24:16.866Z,18.58
2022-12-13T16:26:45.357Z,18.98
2022-12-13T16:29:14.287Z,15.82
2022-12-13T16:31:41.474Z,16.13
2022-12-13T16:34:08.764Z,14.48
2022-12-13T16:36:36.277Z,14.23
2022-12-13T16:39:04.261Z,13.45
2022-12-13T16:41:31.963Z,13.13
2022-12-13T16:44:01.146Z,13.48
2022-12-13T16:47:11.911Z,11.93
2022-12-13T16:49:19.817Z,13.20
2022-12-13T16:54:16.189Z,12.27
2022-12-13T16:56:43.557Z,10.82
2022-12-13T16:59:15.191Z,13.55
2022-12-13T17:01:42.997Z,14.13
2022-12-13T17:04:19.307Z,13.27
2022-12-13T17:06:47.658Z,12.77
2022-12-13T17:09:14.778Z,11.63
2022-12-13T17:11:41.927Z,12.52
2022-12-13T17:14:09.289Z,12.93
2022-12-13T17:16:36.497Z,12.15
2022-12-13T17:19:03.695Z,13.90
2022-12-13T17:21:30.935Z,13.48
2022-12-13T17:23:59.487Z,14.43
2022-12-13T17:26:27.421Z,14.55
2022-12-13T17:28:54.620Z,14.95
2022-12-13T17:31:22.905Z,15.38
2022-12-13T17:33:50.112Z,14.40
2022-12-13T17:36:17.498Z,12.45
2022-12-13T17:38:48.459Z,14.05
2022-12-13T17:41:16.395Z,11.98
2022-12-13T17:43:44.221Z,11.65
2022-12-13T17:46:15.546Z,12.23
2022-12-13T17:48:42.917Z,13.25
2022-12-13T17:51:11.403Z,14.40
2022-12-13T17:53:42.225Z,13.40
2022-12-13T17:56:12.220Z,10.82
2022-12-13T17:58:40.109Z,11.40
2022-12-13T18:01:15.072Z,9.15
2022-12-13T18:03:42.476Z,11.23
2022-12-13T18:06:09.816Z,10.98
2022-12-13T18:08:38.262Z,7.90
2022-12-13T18:11:31.681Z,10.18
2022-12-13T18:13:55.033Z,8.88
2022-12-13T18:16:23.018Z,8.70
2022-12-13T18:18:54.701Z,9.32
2022-12-13T18:21:23.654Z,7.40
2022-12-13T18:23:55.146Z,6.32
2022-12-13T18:26:24.755Z,7.18
2022-12-13T18:28:52.346Z,7.35
2022-12-13T18:31:20.894Z,7.63
2022-12-13T18:33:49.461Z,6.93
2022-12-13T18:36:16.863Z,6.82
2022-12-13T18:38:44.411Z,7.20
2022-12-13T18:41:18.085Z,6.13
2022-12-13T18:43:45.675Z,6.43
2022-12-13T18:46:13.694Z,4.28
2022-12-13T18:48:41.193Z,5.05
2022-12-13T18:51:09.261Z,4.85
2022-12-13T18:53:37.211Z,5.00
2022-12-13T18:56:05.707Z,5.97
2022-12-13T18:58:33.178Z,3.95
2022-12-13T19:01:00.612Z,4.32
2022-12-13T19:03:28.392Z,4.50
2022-12-13T19:05:59.478Z,4.65
2022-12-13T19:08:28.411Z,4.53
2022-12-13T19:10:56.755Z,4.20
2022-12-13T19:13:25.246Z,5.15
2022-12-13T19:15:53.347Z,5.07
2022-12-13T19:18:20.756Z,4.97
2022-12-13T19:20:48.430Z,2.88
2022-12-13T19:23:16.213Z,5.43
2022-12-13T19:25:43.334Z,4.80
2022-12-13T19:28:11.409Z,5.05
2022-12-13T19:30:39.077Z,5.10
2022-12-13T19:33:08.011Z,5.47
2022-12-13T19:35:35.118Z,5.22
2022-12-13T19:38:02.361Z,5.13
2022-12-13T19:40:29.513Z,5.43
2022-12-13T19:42:56.631Z,6.68
2022-12-13T19:45:23.868Z,5.78
2022-12-13T19:47:50.972Z,4.05
2022-12-13T19:50:18.210Z,5.70
2022-12-13T19:52:45.368Z,5.72
2022-12-13T19:55:12.506Z,6.32
2022-12-13T19:57:39.634Z,6.00
2022-12-13T20:00:09.632Z,5.55
2022-12-13T20:02:36.944Z,3.95
2022-12-13T20:05:04.416Z,6.20
2022-12-13T20:07:31.654Z,5.97
2022-12-13T20:09:58.765Z,6.03
2022-12-13T20:12:25.904Z,6.68
2022-12-13T20:14:53.078Z,6.18
2022-12-13T20:17:20.262Z,6.90
2022-12-13T20:19:47.465Z,6.60
2022-12-13T20:22:15.648Z,6.18
2022-12-13T20:24:43.056Z,7.65
2022-12-13T20:27:11.875Z,7.65
2022-12-13T20:29:39.066Z,6.85
2022-12-13T20:32:06.259Z,6.43
2022-12-13T20:34:34.405Z,6.93
2022-12-13T20:37:01.672Z,7.35
2022-12-13T20:39:28.859Z,7.22
2022-12-13T20:41:55.990Z,5.78
2022-12-13T20:44:24.469Z,6.13
2022-12-13T20:46:51.745Z,7.35
2022-12-13T20:49:18.952Z,7.22
2022-12-13T20:51:46.385Z,7.20
2022-12-13T20:54:13.562Z,7.60
2022-12-13T20:56:40.939Z,4.72
2022-12-13T20:59:09.417Z,4.38
2022-12-13T21:01:38.428Z,6.75
2022-12-13T21:04:06.255Z,7.00
2022-12-13T21:06:36.097Z,5.63
2022-12-13T21:09:03.898Z,6.43
2022-12-13T21:11:36.021Z,6.35
2022-12-13T21:14:09.204Z,6.80
2022-12-13T21:16:43.947Z,6.72
2022-12-13T21:19:12.402Z,7.18
2022-12-13T21:21:39.552Z,6.95
2022-12-13T21:24:07.012Z,6.75
2022-12-13T21:26:36.130Z,7.40
2022-12-13T21:29:06.346Z,7.60
2022-12-13T21:31:33.671Z,6.88
2022-12-13T21:34:02.059Z,7.28
2022-12-13T21:36:30.402Z,8.75
2022-12-13T21:38:58.852Z,7.47
2022-12-13T21:41:26.084Z,7.40
2022-12-13T21:43:53.581Z,7.20
2022-12-13T21:46:22.220Z,8.13
2022-12-13T21:48:49.894Z,8.95
2022-12-13T21:51:19.393Z,10.18
2022-12-13T21:53:46.591Z,8.45
2022-12-13T21:56:33.723Z,8.70
2022-12-13T21:59:16.196Z,8.75
2022-12-13T22:02:12.597Z,8.25
2022-12-13T22:04:40.020Z,7.13
2022-12-13T22:07:08.217Z,7.78
2022-12-13T22:09:35.971Z,8.25
2022-12-13T22:12:03.234Z,7.50
2022-12-13T22:14:30.387Z,7.35
2022-12-13T22:16:57.495Z,8.57
2022-12-13T22:19:24.745Z,7.70
2022-12-13T22:21:51.937Z,7.47
2022-12-13T22:24:19.050Z,8.05
2022-12-13T22:26:46.265Z,7.20
2022-12-13T22:29:13.521Z,6.93
2022-12-13T22:31:41.198Z,5.90
2022-12-13T22:34:09.086Z,5.70
2022-12-13T22:36:36.277Z,6.72
2022-12-13T22:39:04.175Z,7.30
2022-12-13T22:41:31.456Z,6.70
2022-12-13T22:43:59.209Z,6.07
2022-12-13T22:46:27.206Z,6.82
2022-12-13T22:48:54.512Z,6.32
2022-12-13T22:51:21.648Z,8.30
2022-12-13T22:53:49.083Z,7.35
2022-12-13T22:56:18.130Z,5.63
2022-12-13T22:58:45.376Z,7.18
2022-12-13T23:01:16.953Z,7.10
2022-12-13T23:03:44.703Z,7.55
2022-12-13T23:06:12.962Z,6.53
2022-12-13T23:08:44.941Z,7.50
2022-12-13T23:11:39.453Z,7.60
2022-12-13T23:14:08.172Z,7.60
2022-12-13T23:16:35.959Z,7.70
2022-12-13T23:19:32.281Z,7.38
2022-12-13T23:21:50.971Z,8.05
2022-12-13T23:24:18.141Z,8.05
2022-12-13T23:26:45.307Z,8.05
2022-12-13T23:29:12.544Z,8.63
2022-12-13T23:31:40.688Z,8.52
2022-12-13T23:34:07.945Z,8.48
2022-12-13T23:36:35.673Z,8.45
2022-12-13T23:39:04.089Z,9.43
2022-12-13T23:41:33.854Z,9.90
2022-12-13T23:44:01.328Z,8.85
2022-12-13T23:46:30.092Z,9.32
2022-12-13T23:48:57.593Z,9.60
2022-12-13T23:51:25.792Z,9.45
2022-12-13T23:53:53.639Z,9.18
2022-12-13T23:56:21.068Z,10.45
2022-12-13T23:58:48.868Z,9.40
